createdAt,value
2018-12-29T00:00:56.327Z,93.49
2018-12-29T00:03:25.054Z,93.23
2018-12-29T00:05:53.569Z,92.96
2018-12-29T00:08:22.281Z,92.69
2018-12-29T00:10:50.866Z,92.46
2018-12-29T00:13:19.606Z,92.35
2018-12-29T00:15:48.201Z,92.15
2018-12-29T00:18:16.982Z,92.84
2018-12-29T00:20:45.598Z,93.44
2018-12-29T00:23:14.295Z,92.99
2018-12-29T00:25:42.873Z,93.13
2018-12-29T00:28:11.439Z,93.05
2018-12-29T00:30:40.172Z,93.20
2018-12-29T00:33:09.945Z,93.04
2018-12-29T00:35:41.242Z,93.02
2018-12-29T00:38:09.981Z,93.40
2018-12-29T00:40:38.500Z,92.87
2018-12-29T00:43:07.300Z,92.73
2018-12-29T00:45:36.026Z,93.02
2018-12-29T00:48:04.731Z,93.52
2018-12-29T00:50:33.372Z,93.36
2018-12-29T00:53:02.155Z,92.95
2018-12-29T00:55:30.776Z,93.41
2018-12-29T00:57:59.683Z,93.15
2018-12-29T01:00:28.327Z,93.13
2018-12-29T01:02:57.015Z,92.78
2018-12-29T01:05:25.738Z,93.48
2018-12-29T01:07:54.481Z,93.02
2018-12-29T01:10:23.033Z,92.33
2018-12-29T01:12:51.858Z,92.63
2018-12-29T01:15:25.798Z,92.50
2018-12-29T01:17:57.414Z,92.20
2018-12-29T01:20:29.049Z,92.34
2018-12-29T01:23:00.279Z,93.05
2018-12-29T01:25:29.211Z,92.61
2018-12-29T01:27:58.228Z,92.60
2018-12-29T01:30:29.225Z,92.68
2018-12-29T01:32:58.391Z,92.64
2018-12-29T01:35:27.298Z,92.12
2018-12-29T01:37:56.138Z,92.29
2018-12-29T01:40:24.996Z,92.39
2018-12-29T01:43:00.179Z,92.15
2018-12-29T01:45:29.053Z,92.72
2018-12-29T01:47:58.049Z,92.48
2018-12-29T01:50:26.973Z,92.16
2018-12-29T01:52:55.825Z,92.60
2018-12-29T01:55:24.919Z,92.58
2018-12-29T01:57:53.587Z,92.72
2018-12-29T02:00:22.269Z,93.42
2018-12-29T02:02:51.026Z,92.88
2018-12-29T02:05:19.837Z,93.06
2018-12-29T02:07:48.661Z,92.79
2018-12-29T02:10:17.346Z,93.12
2018-12-29T02:12:46.035Z,92.69
2018-12-29T02:15:14.874Z,92.50
2018-12-29T02:17:43.629Z,92.87
2018-12-29T02:20:12.660Z,92.80
2018-12-29T02:22:42.411Z,93.37
2018-12-29T02:25:13.177Z,92.74
2018-12-29T02:27:44.625Z,92.89
2018-12-29T02:30:13.400Z,92.98
2018-12-29T02:32:48.981Z,92.90
2018-12-29T02:35:17.955Z,93.12
2018-12-29T02:37:47.320Z,92.26
2018-12-29T02:40:20.168Z,92.51
2018-12-29T02:42:53.628Z,92.16
2018-12-29T02:45:22.638Z,92.24
2018-12-29T02:47:52.361Z,92.34
2018-12-29T02:50:23.646Z,92.21
2018-12-29T02:52:52.786Z,92.39
2018-12-29T02:55:23.130Z,92.49
2018-12-29T02:57:53.924Z,93.00
2018-12-29T03:00:26.688Z,92.83
2018-12-29T03:02:55.662Z,92.67
2018-12-29T03:05:25.110Z,93.40
2018-12-29T03:07:56.242Z,92.45
2018-12-29T03:10:25.017Z,92.75
2018-12-29T03:12:54.123Z,92.81
2018-12-29T03:15:22.935Z,93.04
2018-12-29T03:17:52.957Z,93.62
2018-12-29T03:20:21.633Z,93.39
2018-12-29T03:22:52.268Z,93.37
2018-12-29T03:25:21.127Z,93.49
2018-12-29T03:27:49.769Z,93.43
2018-12-29T03:30:18.531Z,92.94
2018-12-29T03:32:49.466Z,92.55
2018-12-29T03:35:18.169Z,93.11
2018-12-29T03:37:50.503Z,94.04
2018-12-29T03:40:19.247Z,93.56
2018-12-29T03:42:47.928Z,93.64
2018-12-29T03:45:16.621Z,93.23
2018-12-29T03:47:55.462Z,92.84
2018-12-29T03:50:24.218Z,92.69
2018-12-29T03:52:53.240Z,93.00
2018-12-29T03:55:23.029Z,92.60
2018-12-29T03:57:51.723Z,92.50
2018-12-29T04:00:20.543Z,93.03
2018-12-29T04:02:50.914Z,92.96
2018-12-29T04:05:19.488Z,92.70
2018-12-29T04:07:51.728Z,92.55
2018-12-29T04:10:21.034Z,92.62
2018-12-29T04:12:57.219Z,92.54
2018-12-29T04:15:26.022Z,92.41
2018-12-29T04:17:56.831Z,92.41
2018-12-29T04:20:25.581Z,92.45
2018-12-29T04:22:54.517Z,92.45
2018-12-29T04:25:24.926Z,92.32
2018-12-29T04:27:53.658Z,92.27
2018-12-29T04:30:23.901Z,92.86
2018-12-29T04:32:52.670Z,93.26
2018-12-29T04:35:21.532Z,93.20
2018-12-29T04:37:53.903Z,93.36
2018-12-29T04:40:22.788Z,93.46
2018-12-29T04:42:51.505Z,93.60
2018-12-29T04:45:23.146Z,92.55
2018-12-29T04:47:51.741Z,92.76
2018-12-29T04:50:20.554Z,92.56
2018-12-29T04:52:49.393Z,92.32
2018-12-29T04:55:18.462Z,92.27
2018-12-29T04:57:47.165Z,94.12
2018-12-29T05:00:15.844Z,95.24
2018-12-29T05:02:46.438Z,95.15
2018-12-29T05:05:15.158Z,95.01
2018-12-29T05:07:44.281Z,94.91
2018-12-29T05:10:12.957Z,95.20
2018-12-29T05:12:41.741Z,94.83
2018-12-29T05:15:10.488Z,95.19
2018-12-29T05:17:39.358Z,95.13
2018-12-29T05:20:08.539Z,94.92
2018-12-29T05:22:37.664Z,94.52
2018-12-29T05:25:06.435Z,94.24
2018-12-29T05:27:36.297Z,94.73
2018-12-29T05:30:06.376Z,95.07
2018-12-29T05:32:36.726Z,95.09
2018-12-29T05:35:05.471Z,95.07
2018-12-29T05:37:35.107Z,95.39
2018-12-29T05:40:06.095Z,95.61
2018-12-29T05:42:37.454Z,95.04
2018-12-29T05:45:06.283Z,94.68
2018-12-29T05:47:35.220Z,94.92
2018-12-29T05:50:04.686Z,94.48
2018-12-29T05:52:33.457Z,94.43
2018-12-29T05:55:03.625Z,94.14
2018-12-29T05:57:32.325Z,94.00
2018-12-29T06:00:01.131Z,93.85
2018-12-29T06:02:30.591Z,93.84
2018-12-29T06:04:59.344Z,93.90
2018-12-29T06:07:28.298Z,94.29
2018-12-29T06:09:59.156Z,94.18
2018-12-29T06:12:28.192Z,94.12
2018-12-29T06:14:57.467Z,93.86
2018-12-29T06:17:28.957Z,93.88
2018-12-29T06:19:58.592Z,93.92
2018-12-29T06:22:27.334Z,93.59
2018-12-29T06:24:56.169Z,93.67
2018-12-29T06:27:24.744Z,93.58
2018-12-29T06:29:53.603Z,93.87
2018-12-29T06:32:22.395Z,93.87
2018-12-29T06:34:51.297Z,94.14
2018-12-29T06:37:20.065Z,94.57
2018-12-29T06:39:48.866Z,94.21
2018-12-29T06:42:20.205Z,93.73
2018-12-29T06:44:48.917Z,94.27
2018-12-29T06:47:17.696Z,94.20
2018-12-29T06:49:46.503Z,94.24
2018-12-29T06:52:15.166Z,94.61
2018-12-29T06:54:44.292Z,94.48
2018-12-29T06:57:13.688Z,94.05
2018-12-29T06:59:42.532Z,94.01
2018-12-29T07:02:11.235Z,94.42
2018-12-29T07:04:40.121Z,94.17
2018-12-29T07:07:11.817Z,94.08
2018-12-29T07:09:42.376Z,93.96
2018-12-29T07:12:11.745Z,93.15
2018-12-29T07:14:40.466Z,92.81
2018-12-29T07:17:09.191Z,92.37
2018-12-29T07:19:37.936Z,91.38
2018-12-29T07:22:08.857Z,91.01
2018-12-29T07:24:37.911Z,91.51
2018-12-29T07:27:08.874Z,91.31
2018-12-29T07:29:38.296Z,91.47
2018-12-29T07:32:07.325Z,90.90
2018-12-29T07:34:36.110Z,89.52
2018-12-29T07:37:04.877Z,88.26
2018-12-29T07:39:36.192Z,87.23
2018-12-29T07:42:05.602Z,88.41
2018-12-29T07:44:38.414Z,87.30
2018-12-29T07:47:07.845Z,85.89
2018-12-29T07:49:36.717Z,85.62
2018-12-29T07:52:05.466Z,85.49
2018-12-29T07:54:34.406Z,84.63
2018-12-29T07:57:03.260Z,84.81
2018-12-29T07:59:32.457Z,84.32
2018-12-29T08:02:01.399Z,83.77
2018-12-29T08:04:31.461Z,83.65
2018-12-29T08:07:01.006Z,83.17
2018-12-29T08:09:31.921Z,82.79
2018-12-29T08:12:01.081Z,82.32
2018-12-29T08:14:30.014Z,80.82
2018-12-29T08:17:00.464Z,80.08
2018-12-29T08:19:29.261Z,80.41
2018-12-29T08:21:58.002Z,79.95
2018-12-29T08:24:27.006Z,79.14
2018-12-29T08:26:56.012Z,78.18
2018-12-29T08:29:24.735Z,78.07
2018-12-29T08:31:53.669Z,76.80
2018-12-29T08:34:22.569Z,76.82
2018-12-29T08:36:51.683Z,76.71
2018-12-29T08:39:20.446Z,76.87
2018-12-29T08:41:49.298Z,76.21
2018-12-29T08:44:18.323Z,76.17
2018-12-29T08:46:47.198Z,75.49
2018-12-29T08:49:18.673Z,74.12
2018-12-29T08:51:47.394Z,73.64
2018-12-29T08:54:16.237Z,73.26
2018-12-29T08:56:45.069Z,73.14
2018-12-29T08:59:15.636Z,72.00
2018-12-29T09:01:44.365Z,71.64
2018-12-29T09:04:13.091Z,71.11
2018-12-29T09:06:41.855Z,69.68
2018-12-29T09:09:15.118Z,69.35
2018-12-29T09:11:44.013Z,68.58
2018-12-29T09:14:12.711Z,68.09
2018-12-29T09:16:42.460Z,67.76
2018-12-29T09:19:11.128Z,67.91
2018-12-29T09:21:39.809Z,66.74
2018-12-29T09:24:08.469Z,67.27
2018-12-29T09:26:37.392Z,66.31
2018-12-29T09:29:06.251Z,65.23
2018-12-29T09:31:34.986Z,64.86
2018-12-29T09:34:03.636Z,63.72
2018-12-29T09:36:37.050Z,63.57
2018-12-29T09:39:07.392Z,63.46
2018-12-29T09:41:36.136Z,63.22
2018-12-29T09:44:04.675Z,63.32
2018-12-29T09:46:33.567Z,63.49
2018-12-29T09:49:02.187Z,63.18
2018-12-29T09:51:30.821Z,62.73
2018-12-29T09:53:59.527Z,63.03
2018-12-29T09:56:31.412Z,63.87
2018-12-29T09:59:00.114Z,61.88
2018-12-29T10:01:28.863Z,62.25
2018-12-29T10:03:57.469Z,61.84
2018-12-29T10:06:30.655Z,62.07
2018-12-29T10:09:02.762Z,61.67
2018-12-29T10:11:32.710Z,61.37
2018-12-29T10:14:01.669Z,61.71
2018-12-29T10:16:32.208Z,60.72
2018-12-29T10:19:01.930Z,60.45
2018-12-29T10:21:30.708Z,60.16
2018-12-29T10:23:59.743Z,59.37
2018-12-29T10:26:31.035Z,58.50
2018-12-29T10:29:01.614Z,60.10
2018-12-29T10:31:30.364Z,59.07
2018-12-29T10:34:02.066Z,58.74
2018-12-29T10:36:33.591Z,58.68
2018-12-29T10:39:03.097Z,58.05
2018-12-29T10:41:32.567Z,58.23
2018-12-29T10:44:02.797Z,56.46
2018-12-29T10:46:31.957Z,56.36
2018-12-29T10:49:01.163Z,57.37
2018-12-29T10:51:29.947Z,59.85
2018-12-29T10:53:58.961Z,60.27
2018-12-29T10:56:29.459Z,61.38
2018-12-29T10:58:58.227Z,61.50
2018-12-29T11:01:26.899Z,61.32
2018-12-29T11:03:55.688Z,62.06
2018-12-29T11:06:24.318Z,62.95
2018-12-29T11:08:53.033Z,64.44
2018-12-29T11:11:24.655Z,63.93
2018-12-29T11:13:56.343Z,64.43
2018-12-29T11:16:29.970Z,64.79
2018-12-29T11:18:59.476Z,65.27
2018-12-29T11:21:28.742Z,65.47
2018-12-29T11:23:57.836Z,65.46
2018-12-29T11:26:27.316Z,65.71
2018-12-29T11:28:56.522Z,64.33
2018-12-29T11:31:25.813Z,65.53
2018-12-29T11:33:56.498Z,66.00
2018-12-29T11:36:27.207Z,65.85
2018-12-29T11:38:57.706Z,64.79
2018-12-29T11:41:26.432Z,64.76
2018-12-29T11:43:58.044Z,65.05
2018-12-29T11:46:30.172Z,64.62
2018-12-29T11:48:59.270Z,63.54
2018-12-29T11:51:28.136Z,63.29
2018-12-29T11:53:57.294Z,63.23
2018-12-29T11:56:26.503Z,63.09
2018-12-29T11:58:55.809Z,63.48
2018-12-29T12:01:25.855Z,63.47
2018-12-29T12:03:54.905Z,64.48
2018-12-29T12:06:23.581Z,63.63
2018-12-29T12:08:53.159Z,63.98
2018-12-29T12:11:22.452Z,64.79
2018-12-29T12:13:52.647Z,64.99
2018-12-29T12:16:22.036Z,64.98
2018-12-29T12:18:50.744Z,65.56
2018-12-29T12:21:20.947Z,66.63
2018-12-29T12:23:50.927Z,66.37
2018-12-29T12:26:23.199Z,66.69
2018-12-29T12:28:52.843Z,67.67
2018-12-29T12:31:22.084Z,67.65
2018-12-29T12:33:51.103Z,68.09
2018-12-29T12:36:20.481Z,68.68
2018-12-29T12:38:49.466Z,69.53
2018-12-29T12:41:21.740Z,68.06
2018-12-29T12:43:50.474Z,68.01
2018-12-29T12:46:19.727Z,68.37
2018-12-29T12:48:49.070Z,67.98
2018-12-29T12:51:18.229Z,67.64
2018-12-29T12:53:47.756Z,68.93
2018-12-29T12:56:16.578Z,68.16
2018-12-29T12:58:48.713Z,68.22
2018-12-29T13:01:17.960Z,68.51
2018-12-29T13:03:46.733Z,67.99
2018-12-29T13:06:16.386Z,68.41
2018-12-29T13:08:45.107Z,68.45
2018-12-29T13:11:14.372Z,69.20
2018-12-29T13:13:43.549Z,69.69
2018-12-29T13:16:12.523Z,69.04
2018-12-29T13:18:41.187Z,69.20
2018-12-29T13:21:10.071Z,69.21
2018-12-29T13:23:39.073Z,69.41
2018-12-29T13:26:08.046Z,69.99
2018-12-29T13:28:37.148Z,70.04
2018-12-29T13:31:06.875Z,70.22
2018-12-29T13:33:35.840Z,69.85
2018-12-29T13:36:05.309Z,69.42
2018-12-29T13:38:33.955Z,69.55
2018-12-29T13:41:03.035Z,69.53
2018-12-29T13:43:31.886Z,70.01
2018-12-29T13:46:00.516Z,69.67
2018-12-29T13:48:29.261Z,70.09
2018-12-29T13:50:59.392Z,69.90
2018-12-29T13:53:32.966Z,69.98
2018-12-29T13:56:01.715Z,70.53
2018-12-29T13:58:30.387Z,70.60
2018-12-29T14:00:59.373Z,71.05
2018-12-29T14:03:28.308Z,71.48
2018-12-29T14:05:57.704Z,71.06
2018-12-29T14:08:27.122Z,70.73
2018-12-29T14:10:57.258Z,71.18
2018-12-29T14:13:26.374Z,71.04
2018-12-29T14:15:55.123Z,70.86
2018-12-29T14:18:28.408Z,71.15
2018-12-29T14:20:57.143Z,71.58
2018-12-29T14:23:26.414Z,71.95
2018-12-29T14:25:55.352Z,71.43
2018-12-29T14:28:24.418Z,71.60
2018-12-29T14:30:53.228Z,72.03
2018-12-29T14:33:22.236Z,71.95
2018-12-29T14:35:51.194Z,72.17
2018-12-29T14:38:20.346Z,72.03
2018-12-29T14:40:52.474Z,71.90
2018-12-29T14:43:21.375Z,72.29
2018-12-29T14:45:50.197Z,72.13
2018-12-29T14:48:19.237Z,72.60
2018-12-29T14:50:48.060Z,72.74
2018-12-29T14:53:16.874Z,72.89
2018-12-29T14:55:48.184Z,72.83
2018-12-29T14:58:17.549Z,73.24
2018-12-29T15:00:49.060Z,73.69
2018-12-29T15:03:20.651Z,74.02
2018-12-29T15:05:49.721Z,74.37
2018-12-29T15:08:19.358Z,74.75
2018-12-29T15:10:48.283Z,74.86
2018-12-29T15:13:17.484Z,75.25
2018-12-29T15:15:46.357Z,75.94
2018-12-29T15:18:15.830Z,76.47
2018-12-29T15:20:45.210Z,77.03
2018-12-29T15:23:17.025Z,77.03
2018-12-29T15:25:54.359Z,77.31
2018-12-29T15:28:23.622Z,77.56
2018-12-29T15:30:55.632Z,77.58
2018-12-29T15:33:31.160Z,78.03
2018-12-29T15:36:15.842Z,78.94
2018-12-29T15:38:39.198Z,79.56
2018-12-29T15:41:14.025Z,80.06
2018-12-29T15:43:45.543Z,80.34
2018-12-29T15:46:14.482Z,80.30
2018-12-29T15:48:50.837Z,80.50
2018-12-29T15:51:18.978Z,80.86
2018-12-29T15:54:04.445Z,80.90
2018-12-29T15:56:40.112Z,81.01
2018-12-29T15:59:09.594Z,80.94
2018-12-29T16:01:39.791Z,81.05
2018-12-29T16:04:09.160Z,81.31
2018-12-29T16:06:37.941Z,81.51
2018-12-29T16:09:07.857Z,81.59
2018-12-29T16:11:36.821Z,82.09
2018-12-29T16:14:07.780Z,82.04
2018-12-29T16:16:38.270Z,81.83
2018-12-29T16:19:07.120Z,82.03
2018-12-29T16:21:37.032Z,82.59
2018-12-29T16:24:06.408Z,83.47
2018-12-29T16:26:35.482Z,83.19
2018-12-29T16:29:04.331Z,83.32
2018-12-29T16:31:33.331Z,83.61
2018-12-29T16:34:02.352Z,83.64
2018-12-29T16:36:31.561Z,83.52
2018-12-29T16:39:00.361Z,83.53
2018-12-29T16:41:29.124Z,83.63
2018-12-29T16:43:58.806Z,83.49
2018-12-29T16:46:27.570Z,83.49
2018-12-29T16:49:06.562Z,83.71
2018-12-29T16:51:29.723Z,84.27
2018-12-29T16:53:58.602Z,84.58
2018-12-29T16:56:28.756Z,84.87
2018-12-29T16:58:57.825Z,85.06
2018-12-29T17:01:26.533Z,84.99
2018-12-29T17:03:55.414Z,84.96
2018-12-29T17:06:27.390Z,85.40
2018-12-29T17:08:56.031Z,85.30
2018-12-29T17:11:24.794Z,85.53
2018-12-29T17:13:56.083Z,85.30
2018-12-29T17:16:25.918Z,85.53
2018-12-29T17:18:56.951Z,85.66
2018-12-29T17:21:26.672Z,85.83
2018-12-29T17:23:55.561Z,86.41
2018-12-29T17:26:24.490Z,86.35
2018-12-29T17:28:53.284Z,86.06
2018-12-29T17:31:23.392Z,86.39
2018-12-29T17:33:54.688Z,86.86
2018-12-29T17:36:23.448Z,87.20
2018-12-29T17:38:52.359Z,87.23
2018-12-29T17:41:21.584Z,87.18
2018-12-29T17:43:50.734Z,87.14
2018-12-29T17:46:20.084Z,87.49
2018-12-29T17:48:48.846Z,87.32
2018-12-29T17:51:17.543Z,87.22
2018-12-29T17:53:48.206Z,87.69
2018-12-29T17:56:20.597Z,87.96
2018-12-29T17:58:49.520Z,87.47
2018-12-29T18:01:18.217Z,87.47
2018-12-29T18:03:46.946Z,87.48
2018-12-29T18:06:17.641Z,87.11
2018-12-29T18:08:46.475Z,87.13
2018-12-29T18:11:15.337Z,88.17
2018-12-29T18:13:44.261Z,88.79
2018-12-29T18:16:14.532Z,88.83
2018-12-29T18:18:43.394Z,88.35
2018-12-29T18:21:12.597Z,87.85
2018-12-29T18:23:41.379Z,88.32
2018-12-29T18:26:10.141Z,88.27
2018-12-29T18:28:38.915Z,88.48
2018-12-29T18:31:07.847Z,88.59
2018-12-29T18:33:39.736Z,88.27
2018-12-29T18:36:11.396Z,88.41
2018-12-29T18:38:40.392Z,88.49
2018-12-29T18:41:09.072Z,88.29
2018-12-29T18:43:37.916Z,88.32
2018-12-29T18:46:06.791Z,88.75
2018-12-29T18:48:35.763Z,88.78
2018-12-29T18:51:04.531Z,89.30
2018-12-29T18:53:33.239Z,88.95
2018-12-29T18:56:02.097Z,88.58
2018-12-29T18:58:30.852Z,89.05
2018-12-29T19:00:59.500Z,88.80
2018-12-29T19:03:28.330Z,89.45
2018-12-29T19:05:57.284Z,89.80
2018-12-29T19:08:26.045Z,89.96
2018-12-29T19:10:54.824Z,89.95
2018-12-29T19:13:23.854Z,89.50
2018-12-29T19:15:52.891Z,89.80
2018-12-29T19:18:21.650Z,90.03
2018-12-29T19:20:51.629Z,89.55
2018-12-29T19:23:20.841Z,89.41
2018-12-29T19:25:49.940Z,89.45
2018-12-29T19:28:18.952Z,90.07
2018-12-29T19:30:47.638Z,89.30
2018-12-29T19:33:16.707Z,89.74
2018-12-29T19:35:46.583Z,90.03
2018-12-29T19:38:15.636Z,90.07
2018-12-29T19:40:44.742Z,90.11
2018-12-29T19:43:17.006Z,90.76
2018-12-29T19:45:47.589Z,90.27
2018-12-29T19:48:16.420Z,90.52
2018-12-29T19:50:45.218Z,90.53
2018-12-29T19:53:14.323Z,90.33
2018-12-29T19:55:43.013Z,90.59
2018-12-29T19:58:11.752Z,90.45
2018-12-29T20:00:40.492Z,90.04
2018-12-29T20:03:11.272Z,90.11
2018-12-29T20:05:40.319Z,89.96
2018-12-29T20:08:09.032Z,90.34
2018-12-29T20:10:37.669Z,90.37
2018-12-29T20:13:06.684Z,89.99
2018-12-29T20:15:35.399Z,90.20
2018-12-29T20:18:04.127Z,90.71
2018-12-29T20:20:32.949Z,90.62
2018-12-29T20:23:02.688Z,91.28
2018-12-29T20:25:31.717Z,91.97
2018-12-29T20:28:00.502Z,91.57
2018-12-29T20:30:29.411Z,91.89
2018-12-29T20:33:01.003Z,91.73
2018-12-29T20:35:32.885Z,92.09
2018-12-29T20:38:01.620Z,92.17
2018-12-29T20:40:33.546Z,92.23
2018-12-29T20:43:02.349Z,92.30
2018-12-29T20:45:31.093Z,92.81
2018-12-29T20:47:59.917Z,92.45
2018-12-29T20:50:28.621Z,92.30
2018-12-29T20:53:00.511Z,91.99
2018-12-29T20:55:29.374Z,92.32
2018-12-29T20:57:58.326Z,92.74
2018-12-29T21:00:27.074Z,92.89
2018-12-29T21:02:56.132Z,92.92
2018-12-29T21:05:25.756Z,92.78
2018-12-29T21:07:54.632Z,92.57
2018-12-29T21:10:24.428Z,92.41
2018-12-29T21:12:53.241Z,92.36
2018-12-29T21:15:22.924Z,92.92
2018-12-29T21:17:51.839Z,92.61
2018-12-29T21:20:20.599Z,92.35
2018-12-29T21:22:49.377Z,92.55
2018-12-29T21:25:18.172Z,92.63
2018-12-29T21:27:47.168Z,92.52
2018-12-29T21:30:16.020Z,93.02
2018-12-29T21:32:44.977Z,92.89
2018-12-29T21:35:14.093Z,92.75
2018-12-29T21:37:43.017Z,92.80
2018-12-29T21:40:11.810Z,92.67
2018-12-29T21:42:40.958Z,92.72
2018-12-29T21:45:12.489Z,92.33
2018-12-29T21:47:41.289Z,92.15
2018-12-29T21:50:09.979Z,93.04
2018-12-29T21:52:38.866Z,93.23
2018-12-29T21:55:07.646Z,93.08
2018-12-29T21:57:36.392Z,93.59
2018-12-29T22:00:09.081Z,93.49
2018-12-29T22:02:37.755Z,93.47
2018-12-29T22:05:06.504Z,93.28
2018-12-29T22:07:35.278Z,93.20
2018-12-29T22:10:04.325Z,93.00
2018-12-29T22:12:36.141Z,93.08
2018-12-29T22:15:07.438Z,93.04
2018-12-29T22:17:39.144Z,92.99
2018-12-29T22:20:08.581Z,93.13
2018-12-29T22:22:37.384Z,93.20
2018-12-29T22:25:06.192Z,93.17
2018-12-29T22:27:35.453Z,93.39
2018-12-29T22:30:05.327Z,93.38
2018-12-29T22:32:34.070Z,93.54
2018-12-29T22:35:02.671Z,93.66
2018-12-29T22:37:31.496Z,93.91
2018-12-29T22:40:03.306Z,93.92
2018-12-29T22:42:32.201Z,93.80
2018-12-29T22:45:01.085Z,93.82
2018-12-29T22:47:30.275Z,93.68
2018-12-29T22:49:59.382Z,93.87
2018-12-29T22:52:28.012Z,93.75
2018-12-29T22:54:59.504Z,93.80
2018-12-29T22:57:28.181Z,93.55
2018-12-29T22:59:57.097Z,93.90
2018-12-29T23:02:28.756Z,94.09
2018-12-29T23:04:57.593Z,94.25
2018-12-29T23:07:26.325Z,94.14
2018-12-29T23:09:55.121Z,94.14
2018-12-29T23:12:23.949Z,94.17
2018-12-29T23:14:52.879Z,94.29
2018-12-29T23:17:21.648Z,94.38
2018-12-29T23:19:50.430Z,94.35
2018-12-29T23:22:19.423Z,94.22
2018-12-29T23:24:49.225Z,93.90
2018-12-29T23:27:20.169Z,93.72
2018-12-29T23:29:49.005Z,93.50
2018-12-29T23:32:17.920Z,93.42
2018-12-29T23:34:46.736Z,93.34
2018-12-29T23:37:15.766Z,93.48
2018-12-29T23:39:44.561Z,93.35
2018-12-29T23:42:14.552Z,93.05
2018-12-29T23:44:43.593Z,92.84
2018-12-29T23:47:13.793Z,92.61
2018-12-29T23:49:42.681Z,93.18
2018-12-29T23:52:11.740Z,93.30
2018-12-29T23:54:40.629Z,93.58
2018-12-29T23:57:09.434Z,93.46
2018-12-29T23:59:38.275Z,92.97
